createdAt,value
2022-08-11T00:00:09.172Z,6.50
2022-08-11T00:03:05.787Z,6.68
2022-08-11T00:05:47.765Z,6.28
2022-08-11T00:08:43.630Z,6.50
2022-08-11T00:11:13.392Z,6.80
2022-08-11T00:13:47.168Z,6.05
2022-08-11T00:16:17.104Z,5.90
2022-08-11T00:18:49.271Z,6.75
2022-08-11T00:21:18.954Z,7.00
2022-08-11T00:24:08.338Z,7.10
2022-08-11T00:26:37.046Z,6.78
2022-08-11T00:29:10.056Z,5.70
2022-08-11T00:31:44.217Z,6.05
2022-08-11T00:34:14.287Z,5.97
2022-08-11T00:36:53.975Z,6.72
2022-08-11T00:39:27.300Z,6.30
2022-08-11T00:42:17.171Z,5.85
2022-08-11T00:44:54.084Z,6.70
2022-08-11T00:47:35.994Z,6.38
2022-08-11T00:50:39.364Z,6.20
2022-08-11T00:53:29.154Z,6.00
2022-08-11T00:56:34.609Z,6.43
2022-08-11T00:59:36.068Z,6.60
2022-08-11T01:02:33.020Z,6.35
2022-08-11T01:05:21.263Z,6.03
2022-08-11T01:08:10.347Z,6.80
2022-08-11T01:10:50.262Z,5.93
2022-08-11T01:13:43.218Z,6.20
2022-08-11T01:16:53.550Z,5.97
2022-08-11T01:20:45.079Z,6.18
2022-08-11T01:23:19.998Z,5.80
2022-08-11T01:26:18.421Z,5.95
2022-08-11T01:29:05.267Z,6.47
2022-08-11T01:32:24.560Z,5.43
2022-08-11T01:35:13.328Z,5.40
2022-08-11T01:38:08.296Z,5.80
2022-08-11T01:40:57.575Z,5.97
2022-08-11T01:44:22.269Z,6.00
2022-08-11T01:47:52.542Z,5.88
2022-08-11T01:50:48.304Z,5.75
2022-08-11T01:53:50.720Z,6.15
2022-08-11T01:59:10.632Z,5.90
2022-08-11T02:01:50.778Z,5.22
2022-08-11T02:04:25.866Z,5.93
2022-08-11T02:07:22.763Z,5.65
2022-08-11T02:09:57.078Z,6.00
2022-08-11T02:12:52.497Z,5.50
2022-08-11T02:15:27.384Z,6.20
2022-08-11T02:18:22.011Z,6.15
2022-08-11T02:21:15.950Z,5.70
2022-08-11T02:24:04.763Z,5.78
2022-08-11T02:26:47.740Z,6.10
2022-08-11T02:29:25.643Z,5.83
2022-08-11T02:32:37.220Z,5.90
2022-08-11T02:35:29.076Z,5.72
2022-08-11T02:38:05.839Z,6.28
2022-08-11T02:40:43.128Z,6.13
2022-08-11T02:43:26.194Z,6.10
2022-08-11T02:46:19.620Z,6.28
2022-08-11T02:49:23.988Z,6.50
2022-08-11T02:52:05.899Z,5.75
2022-08-11T02:55:01.544Z,6.05
2022-08-11T02:57:51.484Z,6.05
2022-08-11T03:00:21.055Z,5.72
2022-08-11T03:03:17.441Z,5.75
2022-08-11T03:05:58.645Z,5.57
2022-08-11T03:08:56.738Z,6.32
2022-08-11T03:12:04.527Z,6.38
2022-08-11T03:15:12.151Z,6.13
2022-08-11T03:18:12.800Z,6.43
2022-08-11T03:20:59.015Z,6.05
2022-08-11T03:23:35.618Z,5.63
2022-08-11T03:26:24.307Z,5.60
2022-08-11T03:29:25.762Z,5.93
2022-08-11T03:32:02.027Z,6.10
2022-08-11T03:34:35.530Z,6.30
2022-08-11T03:37:35.264Z,6.25
2022-08-11T03:40:52.004Z,6.03
2022-08-11T03:43:50.257Z,6.10
2022-08-11T03:47:07.785Z,7.13
2022-08-11T03:49:47.426Z,6.55
2022-08-11T03:52:35.063Z,6.72
2022-08-11T03:55:32.104Z,6.32
2022-08-11T03:58:15.637Z,6.35
2022-08-11T04:01:02.305Z,6.40
2022-08-11T04:04:08.930Z,6.07
2022-08-11T04:07:10.096Z,6.72
2022-08-11T04:10:08.158Z,6.50
2022-08-11T04:12:57.853Z,6.63
2022-08-11T04:15:50.187Z,6.60
2022-08-11T04:18:54.450Z,6.38
2022-08-11T04:21:35.643Z,6.80
2022-08-11T04:24:38.541Z,6.63
2022-08-11T04:27:14.357Z,7.13
2022-08-11T04:30:14.793Z,7.22
2022-08-11T04:33:10.414Z,6.75
2022-08-11T04:35:56.644Z,7.10
2022-08-11T04:39:20.271Z,6.57
2022-08-11T04:42:36.668Z,6.68
2022-08-11T04:45:53.035Z,6.43
2022-08-11T04:49:04.399Z,6.60
2022-08-11T04:52:01.110Z,6.60
2022-08-11T04:55:28.618Z,6.75
2022-08-11T04:58:36.555Z,6.93
2022-08-11T05:01:41.545Z,6.40
2022-08-11T05:04:44.408Z,6.63
2022-08-11T05:07:59.702Z,6.70
2022-08-11T05:10:54.412Z,7.15
2022-08-11T05:13:51.306Z,7.40
2022-08-11T05:16:45.887Z,7.13
2022-08-11T05:19:38.070Z,7.10
2022-08-11T05:22:28.966Z,6.75
2022-08-11T05:26:44.551Z,6.88
2022-08-11T05:28:53.691Z,6.88
2022-08-11T05:31:49.920Z,6.68
2022-08-11T05:34:44.005Z,7.35
2022-08-11T05:37:27.547Z,7.00
2022-08-11T05:40:34.545Z,6.93
2022-08-11T05:43:30.630Z,6.80
2022-08-11T05:46:25.754Z,6.15
2022-08-11T05:49:12.176Z,7.93
2022-08-11T05:52:05.865Z,8.57
2022-08-11T05:55:05.975Z,8.63
2022-08-11T05:57:49.878Z,9.27
2022-08-11T06:00:24.331Z,8.80
2022-08-11T06:03:00.920Z,8.90
2022-08-11T06:05:43.436Z,9.40
2022-08-11T06:08:13.933Z,9.30
2022-08-11T06:10:45.820Z,9.75
2022-08-11T06:13:18.294Z,9.07
2022-08-11T06:15:52.124Z,9.50
2022-08-11T06:18:20.623Z,10.65
2022-08-11T06:20:55.217Z,11.88
2022-08-11T06:23:25.657Z,12.30
2022-08-11T06:25:56.422Z,14.02
2022-08-11T06:30:52.517Z,13.70
2022-08-11T06:33:44.274Z,14.25
2022-08-11T06:36:25.857Z,16.30
2022-08-11T06:41:38.447Z,15.27
2022-08-11T06:44:19.635Z,14.88
2022-08-11T06:46:56.104Z,15.15
2022-08-11T06:49:52.825Z,14.32
2022-08-11T06:52:34.903Z,17.05
2022-08-11T06:55:58.251Z,14.45
2022-08-11T06:58:55.267Z,14.43
2022-08-11T07:01:49.581Z,13.63
2022-08-11T07:04:30.380Z,14.00
2022-08-11T07:07:44.858Z,13.18
2022-08-11T07:10:57.338Z,13.38
2022-08-11T07:13:46.932Z,14.80
2022-08-11T07:16:29.030Z,13.32
2022-08-11T07:19:26.005Z,13.45
2022-08-11T07:22:15.508Z,12.43
2022-08-11T07:25:14.297Z,14.77
2022-08-11T07:28:08.589Z,14.07
2022-08-11T07:30:41.507Z,15.40
2022-08-11T07:33:21.149Z,14.10
2022-08-11T07:36:03.821Z,14.38
2022-08-11T07:38:47.484Z,14.10
2022-08-11T07:41:18.148Z,13.40
2022-08-11T07:43:49.702Z,12.60
2022-08-11T07:46:38.420Z,12.00
2022-08-11T07:49:28.320Z,11.68
2022-08-11T07:52:15.451Z,12.15
2022-08-11T07:54:48.826Z,13.02
2022-08-11T07:58:14.722Z,10.82
2022-08-11T08:00:47.114Z,11.02
2022-08-11T08:03:39.664Z,13.73
2022-08-11T08:06:42.995Z,12.57
2022-08-11T08:09:30.572Z,13.07
2022-08-11T08:12:20.321Z,13.75
2022-08-11T08:15:07.570Z,13.63
2022-08-11T08:18:09.264Z,14.35
2022-08-11T08:20:50.157Z,13.55
2022-08-11T08:23:35.093Z,13.70
2022-08-11T08:26:26.075Z,14.77
2022-08-11T08:29:16.524Z,13.23
2022-08-11T08:31:47.039Z,13.75
2022-08-11T08:34:17.253Z,14.35
2022-08-11T08:36:49.327Z,14.15
2022-08-11T08:39:21.896Z,13.10
2022-08-11T08:41:54.612Z,14.98
2022-08-11T08:44:42.228Z,14.63
2022-08-11T08:47:42.233Z,13.05
2022-08-11T08:50:16.928Z,14.02
2022-08-11T08:53:00.895Z,15.60
2022-08-11T08:55:31.168Z,14.10
2022-08-11T08:58:03.431Z,13.02
2022-08-11T09:00:40.872Z,13.32
2022-08-11T09:03:39.143Z,14.27
2022-08-11T09:05:59.125Z,14.35
2022-08-11T09:08:31.013Z,12.90
2022-08-11T09:11:20.856Z,14.25
2022-08-11T09:14:05.086Z,14.75
2022-08-11T09:16:36.377Z,14.02
2022-08-11T09:19:04.859Z,15.23
2022-08-11T09:21:48.257Z,14.10
2022-08-11T09:24:38.077Z,13.80
2022-08-11T09:27:08.376Z,13.88
2022-08-11T09:32:09.040Z,12.85
2022-08-11T09:37:28.458Z,13.57
2022-08-11T09:40:30.658Z,11.48
2022-08-11T09:43:20.331Z,11.38
2022-08-11T09:45:53.487Z,11.70
2022-08-11T09:48:27.266Z,13.52
2022-08-11T09:51:00.028Z,11.70
2022-08-11T09:53:38.189Z,10.90
2022-08-11T09:56:35.359Z,10.65
2022-08-11T09:59:04.694Z,11.25
2022-08-11T10:02:03.608Z,10.95
2022-08-11T10:04:43.343Z,8.45
2022-08-11T10:07:19.535Z,10.32
2022-08-11T10:10:05.828Z,9.15
2022-08-11T10:12:37.791Z,9.10
2022-08-11T10:15:31.218Z,9.77
2022-08-11T10:18:28.000Z,8.60
2022-08-11T10:21:00.631Z,8.70
2022-08-11T10:24:01.270Z,9.25
2022-08-11T10:26:53.604Z,9.85
2022-08-11T10:29:44.320Z,8.88
2022-08-11T10:32:32.927Z,9.88
2022-08-11T10:35:09.402Z,9.85
2022-08-11T10:38:08.357Z,8.35
2022-08-11T10:40:28.897Z,9.98
2022-08-11T10:43:10.689Z,9.15
2022-08-11T10:45:59.867Z,8.95
2022-08-11T10:48:30.629Z,8.35
2022-08-11T10:51:14.564Z,7.07
2022-08-11T10:54:12.329Z,6.63
2022-08-11T10:57:00.365Z,7.25
2022-08-11T10:59:30.463Z,7.82
2022-08-11T11:02:00.525Z,6.45
2022-08-11T11:04:40.573Z,6.72
2022-08-11T11:07:16.950Z,6.53
2022-08-11T11:09:49.715Z,6.40
2022-08-11T11:12:44.658Z,5.43
2022-08-11T11:15:32.911Z,5.85
2022-08-11T11:18:18.631Z,5.40
2022-08-11T11:21:04.477Z,6.30
2022-08-11T11:23:39.609Z,5.28
2022-08-11T11:26:40.195Z,5.22
2022-08-11T11:29:31.862Z,4.80
2022-08-11T11:32:21.634Z,5.40
2022-08-11T11:35:34.606Z,6.78
2022-08-11T11:38:04.865Z,4.97
2022-08-11T11:40:34.985Z,5.07
2022-08-11T11:43:03.820Z,5.65
2022-08-11T11:45:32.425Z,5.57
2022-08-11T11:48:01.835Z,5.25
2022-08-11T11:50:36.418Z,4.75
2022-08-11T11:53:08.898Z,5.03
2022-08-11T11:55:37.586Z,4.95
2022-08-11T11:58:25.834Z,5.00
2022-08-11T12:01:12.908Z,4.80
2022-08-11T12:03:43.418Z,5.25
2022-08-11T12:06:16.382Z,4.22
2022-08-11T12:08:48.122Z,4.40
2022-08-11T12:11:38.902Z,4.45
2022-08-11T12:14:11.043Z,4.70
2022-08-11T12:16:44.710Z,4.88
2022-08-11T12:19:17.582Z,4.90
2022-08-11T12:22:05.372Z,4.78
2022-08-11T12:24:54.418Z,4.47
2022-08-11T12:27:25.744Z,4.40
2022-08-11T12:29:55.909Z,4.15
2022-08-11T12:32:30.341Z,4.50
2022-08-11T12:34:59.573Z,4.38
2022-08-11T12:37:35.391Z,4.28
2022-08-11T12:40:42.667Z,4.40
2022-08-11T12:43:40.834Z,4.50
2022-08-11T12:46:14.351Z,5.00
2022-08-11T12:49:07.964Z,4.50
2022-08-11T12:52:01.578Z,4.10
2022-08-11T12:54:57.472Z,4.32
2022-08-11T12:57:50.302Z,3.78
2022-08-11T13:00:39.044Z,4.38
2022-08-11T13:03:27.758Z,3.85
2022-08-11T13:05:58.614Z,4.38
2022-08-11T13:08:29.430Z,4.63
2022-08-11T13:13:52.575Z,3.95
2022-08-11T13:16:31.638Z,3.90
2022-08-11T13:19:03.002Z,4.43
2022-08-11T13:21:32.751Z,4.60
2022-08-11T13:24:03.550Z,5.00
2022-08-11T13:26:47.751Z,4.57
2022-08-11T13:29:20.736Z,4.65
2022-08-11T13:31:49.513Z,4.43
2022-08-11T13:34:20.047Z,4.50
2022-08-11T13:36:54.638Z,5.05
2022-08-11T13:39:31.552Z,5.40
2022-08-11T13:42:02.141Z,4.97
2022-08-11T13:44:31.577Z,6.00
2022-08-11T13:47:04.319Z,4.30
2022-08-11T13:49:39.796Z,4.93
2022-08-11T13:52:14.707Z,4.00
2022-08-11T13:54:44.715Z,4.78
2022-08-11T13:58:06.584Z,5.40
2022-08-11T14:00:20.905Z,7.57
2022-08-11T14:02:56.925Z,5.15
2022-08-11T14:05:39.172Z,4.82
2022-08-11T14:08:33.925Z,4.00
2022-08-11T14:12:22.791Z,3.97
2022-08-11T14:14:22.940Z,5.78
2022-08-11T14:16:54.315Z,5.10
2022-08-11T14:19:25.496Z,6.25
2022-08-11T14:22:08.575Z,5.65
2022-08-11T14:24:43.020Z,4.10
2022-08-11T14:28:32.304Z,6.10
2022-08-11T14:30:04.677Z,4.35
2022-08-11T14:32:34.133Z,4.22
2022-08-11T14:35:20.896Z,5.00
2022-08-11T14:37:50.174Z,4.60
2022-08-11T14:40:37.760Z,5.60
2022-08-11T14:44:12.272Z,6.10
2022-08-11T14:49:01.833Z,5.70
2022-08-11T14:51:30.188Z,6.50
2022-08-11T14:54:19.571Z,5.38
2022-08-11T14:56:48.563Z,4.75
2022-08-11T14:59:17.187Z,5.05
2022-08-11T15:02:04.288Z,4.72
2022-08-11T15:04:36.491Z,4.68
2022-08-11T15:07:16.789Z,4.53
2022-08-11T15:10:11.711Z,4.63
2022-08-11T15:12:39.367Z,4.90
2022-08-11T15:15:27.781Z,4.35
2022-08-11T15:18:00.057Z,4.10
2022-08-11T15:20:53.842Z,4.20
2022-08-11T15:23:40.605Z,5.32
2022-08-11T15:26:16.030Z,4.85
2022-08-11T15:29:08.810Z,4.65
2022-08-11T15:31:57.844Z,4.00
2022-08-11T15:34:48.101Z,3.70
2022-08-11T15:37:28.526Z,4.20
2022-08-11T15:40:31.498Z,4.10
2022-08-11T15:43:28.475Z,3.90
2022-08-11T15:46:02.295Z,4.60
2022-08-11T15:48:33.377Z,4.40
2022-08-11T15:53:56.854Z,5.57
2022-08-11T15:56:31.549Z,4.22
2022-08-11T15:59:41.518Z,6.18
2022-08-11T16:02:31.363Z,4.90
2022-08-11T16:05:02.896Z,4.80
2022-08-11T16:07:36.420Z,4.72
2022-08-11T16:10:19.423Z,5.00
2022-08-11T16:13:07.966Z,5.70
2022-08-11T16:16:03.099Z,5.10
2022-08-11T16:18:42.461Z,4.60
2022-08-11T16:21:34.112Z,5.63
2022-08-11T16:26:30.314Z,9.35
2022-08-11T16:27:10.811Z,8.60
2022-08-11T16:29:47.859Z,6.43
2022-08-11T16:32:23.349Z,5.47
2022-08-11T16:35:16.212Z,4.90
2022-08-11T16:38:04.320Z,5.55
2022-08-11T16:40:34.194Z,4.90
2022-08-11T16:43:24.530Z,4.57
2022-08-11T16:46:12.954Z,4.70
2022-08-11T16:48:43.692Z,4.55
2022-08-11T16:53:46.036Z,4.55
2022-08-11T16:56:55.354Z,4.22
2022-08-11T16:59:30.366Z,4.68
2022-08-11T17:02:11.886Z,4.78
2022-08-11T17:05:14.328Z,5.03
2022-08-11T17:08:02.436Z,4.78
2022-08-11T17:11:04.139Z,5.50
2022-08-11T17:13:44.118Z,5.85
2022-08-11T17:16:14.591Z,5.30
2022-08-11T17:19:08.773Z,4.70
2022-08-11T17:22:01.330Z,4.70
2022-08-11T17:24:32.418Z,4.78
2022-08-11T17:27:04.498Z,6.40
2022-08-11T17:29:55.640Z,4.88
2022-08-11T17:32:55.816Z,4.97
2022-08-11T17:35:32.971Z,5.78
2022-08-11T17:38:14.971Z,5.60
2022-08-11T17:41:18.548Z,8.60
2022-08-11T17:44:12.547Z,5.43
2022-08-11T17:47:05.690Z,8.13
2022-08-11T17:49:39.653Z,5.10
2022-08-11T17:52:31.971Z,5.60
2022-08-11T17:55:51.081Z,5.65
2022-08-11T17:58:32.186Z,4.78
2022-08-11T18:01:08.750Z,7.20
2022-08-11T18:03:41.853Z,5.00
2022-08-11T18:06:34.348Z,4.50
2022-08-11T18:09:27.845Z,4.85
2022-08-11T18:12:19.130Z,5.05
2022-08-11T18:15:08.993Z,4.38
2022-08-11T18:17:56.336Z,4.22
2022-08-11T18:20:47.135Z,4.30
2022-08-11T18:23:40.583Z,16.30
2022-08-11T18:26:39.721Z,5.35
2022-08-11T18:29:28.534Z,5.00
2022-08-11T18:32:21.151Z,5.03
2022-08-11T18:35:10.861Z,6.80
2022-08-11T18:38:02.414Z,5.35
2022-08-11T18:40:50.433Z,5.80
2022-08-11T18:43:39.794Z,17.38
2022-08-11T18:46:29.413Z,4.40
2022-08-11T18:50:00.932Z,5.70
2022-08-11T18:52:36.753Z,5.90
2022-08-11T18:55:29.556Z,4.97
2022-08-11T18:58:22.241Z,4.90
2022-08-11T19:01:09.953Z,4.30
2022-08-11T19:04:10.567Z,4.10
2022-08-11T19:07:00.950Z,4.45
2022-08-11T19:09:50.011Z,4.72
2022-08-11T19:12:38.760Z,4.30
2022-08-11T19:15:27.326Z,4.50
2022-08-11T19:18:17.664Z,4.18
2022-08-11T19:21:05.409Z,5.95
2022-08-11T19:23:57.075Z,4.75
2022-08-11T19:26:45.035Z,5.07
2022-08-11T19:30:07.123Z,14.20
2022-08-11T19:32:41.936Z,10.70
2022-08-11T19:35:30.883Z,17.92
2022-08-11T19:38:19.107Z,9.25
2022-08-11T19:41:07.131Z,9.38
2022-08-11T19:43:55.541Z,5.78
2022-08-11T19:46:43.091Z,5.90
2022-08-11T19:49:30.708Z,5.30
2022-08-11T19:52:18.249Z,5.13
2022-08-11T19:55:06.952Z,13.73
2022-08-11T19:57:55.758Z,8.32
2022-08-11T20:00:42.397Z,7.05
2022-08-11T20:03:31.019Z,5.28
2022-08-11T20:06:20.527Z,9.52
2022-08-11T20:09:08.724Z,17.63
2022-08-11T20:12:01.657Z,15.23
2022-08-11T20:14:53.062Z,5.95
2022-08-11T20:20:31.941Z,30.10
2022-08-11T20:23:23.246Z,12.75
2022-08-11T20:26:30.382Z,11.07
2022-08-11T20:29:19.485Z,8.45
2022-08-11T20:32:09.351Z,7.90
2022-08-11T20:34:58.717Z,6.80
2022-08-11T20:37:50.782Z,36.92
2022-08-11T20:40:42.643Z,8.98
2022-08-11T20:44:06.362Z,8.85
2022-08-11T20:46:45.631Z,12.63
2022-08-11T20:49:45.956Z,26.05
2022-08-11T20:52:47.244Z,10.57
2022-08-11T20:55:51.205Z,6.05
2022-08-11T21:01:47.281Z,10.65
2022-08-11T21:04:53.903Z,11.50
2022-08-11T21:07:44.434Z,10.85
2022-08-11T21:10:53.602Z,5.93
2022-08-11T21:13:45.989Z,5.85
2022-08-11T21:16:38.358Z,6.13
2022-08-11T21:20:00.306Z,6.85
2022-08-11T21:22:59.604Z,6.30
2022-08-11T21:25:59.691Z,5.78
2022-08-11T21:28:48.735Z,6.05
2022-08-11T21:31:37.281Z,6.15
2022-08-11T21:34:26.703Z,6.15
2022-08-11T21:37:14.320Z,6.63
2022-08-11T21:40:02.638Z,6.38
2022-08-11T21:42:53.142Z,5.82
2022-08-11T21:45:41.379Z,5.65
2022-08-11T21:48:30.184Z,6.68
2022-08-11T21:51:17.926Z,6.55
2022-08-11T21:54:05.348Z,6.60
2022-08-11T21:56:52.572Z,6.32
2022-08-11T21:59:54.511Z,6.50
2022-08-11T22:02:43.538Z,6.25
2022-08-11T22:07:13.699Z,6.85
2022-08-11T22:10:00.790Z,6.65
2022-08-11T22:13:10.487Z,6.00
2022-08-11T22:15:57.458Z,6.47
2022-08-11T22:18:44.104Z,6.70
2022-08-11T22:22:02.741Z,6.82
2022-08-11T22:24:39.155Z,6.47
2022-08-11T22:27:27.433Z,6.95
2022-08-11T22:30:13.926Z,7.20
2022-08-11T22:33:02.262Z,6.80
2022-08-11T22:35:50.247Z,7.78
2022-08-11T22:38:39.252Z,7.25
2022-08-11T22:41:28.231Z,6.93
2022-08-11T22:44:15.143Z,6.85
2022-08-11T22:47:01.977Z,6.45
2022-08-11T22:49:57.429Z,6.20
2022-08-11T22:52:47.276Z,6.75
2022-08-11T22:55:34.878Z,6.45
2022-08-11T22:58:22.527Z,6.60
2022-08-11T23:01:09.804Z,6.25
2022-08-11T23:03:57.201Z,6.30
2022-08-11T23:06:45.293Z,7.00
2022-08-11T23:09:32.218Z,7.53
2022-08-11T23:12:18.889Z,7.45
2022-08-11T23:15:05.578Z,7.03
2022-08-11T23:17:52.668Z,7.03
2022-08-11T23:20:45.474Z,6.63
2022-08-11T23:23:34.681Z,7.57
2022-08-11T23:26:22.520Z,8.20
2022-08-11T23:29:11.730Z,8.40
2022-08-11T23:31:58.392Z,7.18
2022-08-11T23:35:04.554Z,7.20
2022-08-11T23:37:59.816Z,8.15
2022-08-11T23:40:46.525Z,7.95
2022-08-11T23:43:40.521Z,7.88
2022-08-11T23:46:27.380Z,8.10
2022-08-11T23:49:20.985Z,8.55
2022-08-11T23:52:09.451Z,7.95
2022-08-11T23:54:57.188Z,8.02
2022-08-11T23:57:49.333Z,8.25
